Time;durP1;ratioP1;P1;durP2;ratioP2;P2;SDS_P1;SDS_P2;PMS_P1;PMS_P2;Temp;Humidity;BMP_temperature;BMP_pressure;BME280_temperature;BME280_humidity;BME280_pressure;Samples;Min_cycle;Max_cycle;Signal;HPM_P1;HPM_P2
2023/05/12 00:02:17;;;;;;;19.27;13.32;;;11.80;99.90;;;;;;5016254;28;90166;-33
2023/05/12 00:04:42;;;;;;;21.60;11.23;;;11.80;99.90;;;;;;5016230;27;90987;-32
2023/05/12 00:07:08;;;;;;;20.98;15.02;;;12.00;99.90;;;;;;5017106;27;89320;-32
2023/05/12 00:09:33;;;;;;;19.52;12.95;;;11.90;99.90;;;;;;5016078;28;89169;-35
2023/05/12 00:12:00;;;;;;;24.08;15.18;;;11.80;99.90;;;;;;5016578;28;89010;-33
2023/05/12 00:14:25;;;;;;;18.65;15.63;;;11.80;99.90;;;;;;5015483;28;90150;-35
2023/05/12 00:16:51;;;;;;;23.05;15.00;;;11.80;99.90;;;;;;4986108;28;89721;-32
2023/05/12 00:19:18;;;;;;;23.70;15.93;;;11.80;99.90;;;;;;5010862;28;87767;-32
2023/05/12 00:21:44;;;;;;;25.07;14.77;;;11.80;99.90;;;;;;5017419;27;90132;-30
2023/05/12 00:24:10;;;;;;;23.92;15.48;;;11.80;99.90;;;;;;5014814;27;90589;-35
2023/05/12 00:26:35;;;;;;;24.00;14.00;;;11.80;99.90;;;;;;5010052;28;90918;-31
2023/05/12 00:29:01;;;;;;;25.13;16.17;;;11.70;99.90;;;;;;4997759;28;89443;-33
2023/05/12 00:31:28;;;;;;;29.88;16.60;;;11.80;99.90;;;;;;4997598;28;90274;-34
2023/05/12 00:33:53;;;;;;;25.63;16.42;;;11.70;99.90;;;;;;4997842;28;89989;-35
2023/05/12 00:36:19;;;;;;;29.27;15.43;;;11.70;99.90;;;;;;4997878;28;90041;-33
2023/05/12 00:38:45;;;;;;;29.88;18.25;;;11.80;99.90;;;;;;4997926;28;88996;-32
2023/05/12 00:41:10;;;;;;;24.15;15.82;;;11.80;99.90;;;;;;4997832;28;90245;-35
2023/05/12 00:43:36;;;;;;;25.65;16.42;;;11.90;99.90;;;;;;4997632;28;89731;-32
2023/05/12 00:46:04;;;;;;;24.85;17.13;;;11.90;99.90;;;;;;4997887;28;90250;-34
2023/05/12 00:48:31;;;;;;;29.92;19.65;;;11.80;99.90;;;;;;5010397;28;89101;-32
2023/05/12 00:50:58;;;;;;;24.67;17.95;;;11.80;99.90;;;;;;4997662;28;90981;-33
2023/05/12 00:53:24;;;;;;;30.05;18.73;;;11.80;99.90;;;;;;4997151;28;89422;-35
2023/05/12 00:55:50;;;;;;;27.17;16.83;;;11.80;99.90;;;;;;4997303;28;89178;-33
2023/05/12 00:58:15;;;;;;;33.72;17.95;;;11.90;99.90;;;;;;4997262;28;90743;-32
2023/05/12 01:00:41;;;;;;;41.83;20.55;;;11.90;99.90;;;;;;4998125;28;90329;-32
2023/05/12 01:03:07;;;;;;;27.23;17.58;;;11.90;99.90;;;;;;4996984;28;89607;-32
2023/05/12 01:05:46;;;;;;;28.05;17.80;;;12.00;99.90;;;;;;4997782;28;90750;-33
2023/05/12 01:08:12;;;;;;;38.55;19.98;;;11.90;99.90;;;;;;4997120;28;89031;-34
2023/05/12 01:10:43;;;;;;;33.08;18.35;;;11.80;99.90;;;;;;4997826;28;90921;-33
2023/05/12 01:13:09;;;;;;;28.88;18.35;;;11.90;99.90;;;;;;4996575;28;90429;-31
2023/05/12 01:15:36;;;;;;;38.05;21.63;;;12.00;99.90;;;;;;4997058;28;91013;-33
2023/05/12 01:18:04;;;;;;;30.70;21.20;;;12.00;99.90;;;;;;4998306;28;90438;-33
2023/05/12 01:20:30;;;;;;;33.90;20.45;;;12.00;99.90;;;;;;5000992;28;90269;-33
2023/05/12 01:22:57;;;;;;;27.63;16.92;;;11.90;99.90;;;;;;5001570;28;89438;-33
2023/05/12 01:25:25;;;;;;;33.28;22.42;;;12.10;99.90;;;;;;5000816;28;89330;-32
2023/05/12 01:27:52;;;;;;;36.75;20.88;;;12.20;99.90;;;;;;5001451;28;89399;-35
2023/05/12 01:30:18;;;;;;;29.75;23.75;;;12.10;99.90;;;;;;5001251;28;90722;-32
2023/05/12 01:32:44;;;;;;;30.15;23.25;;;12.20;99.90;;;;;;5000990;28;89295;-34
2023/05/12 01:35:10;;;;;;;36.03;21.90;;;12.20;99.90;;;;;;5000928;28;89869;-31
2023/05/12 01:37:36;;;;;;;36.33;21.33;;;12.10;99.90;;;;;;5000677;28;90358;-32
2023/05/12 01:40:02;;;;;;;34.53;21.88;;;12.10;99.90;;;;;;5000438;28;89685;-35
2023/05/12 01:42:28;;;;;;;32.30;23.02;;;12.10;99.90;;;;;;5004665;28;89230;-34
2023/05/12 01:44:53;;;;;;;33.80;21.23;;;12.20;99.90;;;;;;5008075;28;89363;-35
2023/05/12 01:47:20;;;;;;;37.20;23.92;;;12.10;99.90;;;;;;5004964;28;87671;-32
2023/05/12 01:49:46;;;;;;;38.58;25.08;;;12.20;99.90;;;;;;5009443;28;90414;-34
2023/05/12 01:52:11;;;;;;;33.42;22.45;;;12.10;99.90;;;;;;5003705;28;89415;-32
2023/05/12 01:54:37;;;;;;;33.40;25.05;;;12.00;99.90;;;;;;5019847;27;89524;-29
2023/05/12 01:57:03;;;;;;;36.55;24.15;;;12.10;99.90;;;;;;5006383;28;89826;-31
2023/05/12 01:59:28;;;;;;;41.30;25.35;;;12.10;99.90;;;;;;5019808;28;90287;-33
2023/05/12 02:01:54;;;;;;;52.70;25.50;;;12.10;99.90;;;;;;5014409;28;92392;-32
2023/05/12 02:04:20;;;;;;;40.55;23.98;;;12.00;99.90;;;;;;4999883;28;90411;-32
2023/05/12 02:06:45;;;;;;;38.78;26.45;;;12.10;99.90;;;;;;5012648;28;88491;-31
2023/05/12 02:09:11;;;;;;;37.75;24.98;;;12.20;99.90;;;;;;4999181;28;89807;-32
2023/05/12 02:11:37;;;;;;;39.90;26.08;;;12.10;99.90;;;;;;4998879;28;89834;-31
2023/05/12 02:14:03;;;;;;;41.42;22.83;;;12.10;99.90;;;;;;4999506;28;90441;-31
2023/05/12 02:16:28;;;;;;;38.95;25.40;;;12.00;99.90;;;;;;5004497;28;88869;-35
2023/05/12 02:18:54;;;;;;;35.28;22.77;;;12.00;99.90;;;;;;5007885;28;89861;-32
2023/05/12 02:21:20;;;;;;;42.45;23.48;;;12.20;99.90;;;;;;5004172;28;89472;-34
2023/05/12 02:23:45;;;;;;;37.17;27.02;;;12.20;99.90;;;;;;5008113;28;89769;-31
2023/05/12 02:26:11;;;;;;;53.28;27.98;;;12.20;99.90;;;;;;4996582;28;90085;-31
2023/05/12 02:28:36;;;;;;;36.25;22.40;;;12.10;99.90;;;;;;5010562;28;90678;-33
2023/05/12 02:31:02;;;;;;;39.60;24.88;;;12.20;99.90;;;;;;5009698;28;88402;-34
2023/05/12 02:33:28;;;;;;;46.10;31.00;;;12.30;99.90;;;;;;4997897;28;90340;-35
2023/05/12 02:35:54;;;;;;;46.88;26.73;;;12.20;99.90;;;;;;5013446;28;89232;-32
2023/05/12 02:38:20;;;;;;;49.15;29.02;;;12.20;99.90;;;;;;5016008;28;90318;-31
2023/05/12 02:40:46;;;;;;;42.38;27.40;;;12.30;99.90;;;;;;5003725;27;89525;-33
2023/05/12 02:43:12;;;;;;;45.13;27.17;;;12.30;99.90;;;;;;5016071;27;89859;-33
2023/05/12 02:45:38;;;;;;;41.70;25.40;;;12.30;99.90;;;;;;4996586;28;88698;-31
2023/05/12 02:48:04;;;;;;;57.67;27.50;;;12.20;99.90;;;;;;5008759;28;90267;-31
2023/05/12 02:50:30;;;;;;;48.83;26.95;;;12.30;99.90;;;;;;4984067;28;90038;-34
2023/05/12 02:52:56;;;;;;;57.08;30.20;;;12.20;99.90;;;;;;5002085;28;91154;-31
2023/05/12 02:55:22;;;;;;;48.10;27.75;;;12.10;99.90;;;;;;4984235;28;89161;-34
2023/05/12 02:57:47;;;;;;;47.25;29.23;;;12.20;99.90;;;;;;4979534;28;90388;-30
2023/05/12 03:00:13;;;;;;;41.97;26.63;;;12.20;99.90;;;;;;4996969;28;89687;-32
2023/05/12 03:02:39;;;;;;;45.10;28.65;;;12.20;99.90;;;;;;4988772;28;89200;-30
2023/05/12 03:05:06;;;;;;;44.78;25.92;;;12.30;99.90;;;;;;4985056;28;88294;-32
2023/05/12 03:07:32;;;;;;;55.38;33.72;;;12.30;99.90;;;;;;4988415;28;90124;-33
2023/05/12 03:09:58;;;;;;;45.60;29.02;;;12.20;99.90;;;;;;4979805;28;90538;-35
2023/05/12 03:12:23;;;;;;;44.80;26.05;;;12.20;99.90;;;;;;4978738;28;89639;-36
2023/05/12 03:14:50;;;;;;;45.60;29.00;;;12.30;99.90;;;;;;4979731;28;88483;-32
2023/05/12 03:17:15;;;;;;;46.28;30.48;;;12.20;99.90;;;;;;4979915;28;89837;-35
2023/05/12 03:19:41;;;;;;;47.20;28.75;;;12.30;99.90;;;;;;4984576;28;90497;-32
2023/05/12 03:22:07;;;;;;;48.28;28.33;;;12.30;99.90;;;;;;4985834;28;89555;-33
2023/05/12 03:24:33;;;;;;;51.53;28.77;;;12.30;99.90;;;;;;4980585;28;88423;-34
2023/05/12 03:26:59;;;;;;;48.13;29.80;;;12.30;99.90;;;;;;4979704;28;90881;-32
2023/05/12 03:29:25;;;;;;;50.75;32.42;;;12.30;99.90;;;;;;4984746;28;89457;-31
2023/05/12 03:31:51;;;;;;;47.10;29.67;;;12.40;99.90;;;;;;4999195;28;89908;-31
2023/05/12 03:34:16;;;;;;;50.17;28.50;;;12.40;99.90;;;;;;4993215;28;88738;-31
2023/05/12 03:36:42;;;;;;;53.15;31.08;;;12.40;99.90;;;;;;4979871;28;89529;-32
2023/05/12 03:39:08;;;;;;;46.20;27.13;;;12.40;99.90;;;;;;4983448;28;90813;-33
2023/05/12 03:41:34;;;;;;;40.80;26.88;;;12.40;99.90;;;;;;4986420;28;90293;-34
2023/05/12 03:44:00;;;;;;;47.25;27.52;;;12.40;99.90;;;;;;5002575;28;88605;-33
2023/05/12 03:46:26;;;;;;;51.40;32.45;;;12.40;99.90;;;;;;5005624;28;90480;-34
2023/05/12 03:48:52;;;;;;;43.85;27.45;;;12.40;99.90;;;;;;5009432;28;89292;-33
2023/05/12 03:51:17;;;;;;;42.50;29.10;;;12.40;99.90;;;;;;4998042;28;89476;-32
2023/05/12 03:53:45;;;;;;;48.65;31.38;;;12.40;99.90;;;;;;4998024;28;89862;-31
2023/05/12 03:56:11;;;;;;;50.85;30.30;;;12.40;99.90;;;;;;4988099;28;90244;-30
2023/05/12 03:58:36;;;;;;;48.67;30.27;;;12.50;99.90;;;;;;4978554;28;91816;-35
2023/05/12 04:01:02;;;;;;;65.95;31.48;;;12.50;99.90;;;;;;4979105;28;89185;-32
2023/05/12 04:03:28;;;;;;;47.75;29.17;;;12.50;99.90;;;;;;4978021;28;89256;-33
2023/05/12 04:05:58;;;;;;;42.08;26.25;;;12.50;99.90;;;;;;4989740;28;90415;-31
2023/05/12 04:08:24;;;;;;;46.03;28.35;;;12.50;99.90;;;;;;5004859;28;89286;-32
2023/05/12 04:10:49;;;;;;;56.50;31.25;;;12.60;99.90;;;;;;4978470;28;90124;-31
2023/05/12 04:13:15;;;;;;;51.22;28.52;;;12.60;99.90;;;;;;5014598;22;88970;-30
2023/05/12 04:15:41;;;;;;;45.20;26.50;;;12.60;99.90;;;;;;4986331;28;89807;-34
2023/05/12 04:18:07;;;;;;;54.15;31.45;;;12.60;99.90;;;;;;4959074;28;91110;-32
2023/05/12 04:20:32;;;;;;;42.47;24.73;;;12.60;99.90;;;;;;4958675;28;89272;-34
2023/05/12 04:22:58;;;;;;;48.13;30.13;;;12.60;99.90;;;;;;4964728;28;88130;-33
2023/05/12 04:25:23;;;;;;;49.63;28.50;;;12.60;99.90;;;;;;4965955;28;89221;-31
2023/05/12 04:27:49;;;;;;;44.47;25.58;;;12.60;99.90;;;;;;4959379;28;90299;-33
2023/05/12 04:30:15;;;;;;;47.17;27.48;;;12.60;99.90;;;;;;4958575;28;90309;-34
2023/05/12 04:32:41;;;;;;;38.05;25.40;;;12.60;99.90;;;;;;4960446;28;87800;-31
2023/05/12 04:35:07;;;;;;;37.75;25.90;;;12.60;99.90;;;;;;4971357;28;89452;-34
2023/05/12 04:37:33;;;;;;;38.60;25.55;;;12.60;99.90;;;;;;4960551;28;90707;-32
2023/05/12 04:39:58;;;;;;;45.13;26.50;;;12.60;99.90;;;;;;4960235;28;90251;-31
2023/05/12 04:42:24;;;;;;;44.45;29.55;;;12.60;99.90;;;;;;4966371;28;88238;-33
2023/05/12 04:44:50;;;;;;;44.30;28.38;;;12.70;99.90;;;;;;4959469;28;90357;-32
2023/05/12 04:47:15;;;;;;;48.88;29.08;;;12.70;99.90;;;;;;4966838;28;91361;-34
2023/05/12 04:49:41;;;;;;;39.97;27.80;;;12.60;99.90;;;;;;4987368;28;89761;-31
2023/05/12 04:52:06;;;;;;;49.00;26.63;;;12.60;99.90;;;;;;4976688;28;89311;-34
2023/05/12 04:54:32;;;;;;;54.10;32.40;;;12.60;99.90;;;;;;4980343;28;90827;-30
2023/05/12 04:56:57;;;;;;;44.35;28.63;;;12.60;99.90;;;;;;4965757;28;89772;-35
2023/05/12 04:59:23;;;;;;;53.47;32.28;;;12.60;99.90;;;;;;4971388;28;89429;-31
2023/05/12 05:01:49;;;;;;;49.90;31.42;;;12.70;99.90;;;;;;4976875;28;88747;-30
2023/05/12 05:04:15;;;;;;;44.20;26.95;;;12.70;99.90;;;;;;4961257;28;90514;-30
2023/05/12 05:06:41;;;;;;;39.72;26.10;;;12.70;99.90;;;;;;4961788;28;89685;-35
2023/05/12 05:09:06;;;;;;;48.92;27.45;;;12.70;99.90;;;;;;4961923;28;89205;-31
2023/05/12 05:11:32;;;;;;;43.70;27.20;;;12.80;99.90;;;;;;4973846;28;88710;-32
2023/05/12 05:13:58;;;;;;;45.50;27.05;;;12.70;99.90;;;;;;4961395;28;90152;-35
2023/05/12 05:16:24;;;;;;;50.30;33.88;;;12.70;99.90;;;;;;4973764;28;90719;-34
2023/05/12 05:18:49;;;;;;;46.97;28.20;;;12.60;99.90;;;;;;4972806;28;89490;-32
2023/05/12 05:21:15;;;;;;;45.85;25.88;;;12.70;99.90;;;;;;4963018;28;88186;-32
2023/05/12 05:23:41;;;;;;;40.25;25.38;;;12.80;99.90;;;;;;4961300;28;89768;-31
2023/05/12 05:26:09;;;;;;;46.55;27.20;;;12.80;99.90;;;;;;4962723;28;89230;-32
2023/05/12 05:28:36;;;;;;;46.35;26.00;;;12.80;99.90;;;;;;4962057;28;89809;-32
2023/05/12 05:31:01;;;;;;;43.47;28.30;;;12.80;99.90;;;;;;4962269;28;88952;-33
2023/05/12 05:33:27;;;;;;;43.33;27.75;;;12.80;99.90;;;;;;4962041;28;89471;-31
2023/05/12 05:35:54;;;;;;;45.88;28.88;;;12.80;99.90;;;;;;4974408;28;89272;-32
2023/05/12 05:38:19;;;;;;;53.65;30.95;;;12.90;99.90;;;;;;4961090;28;89648;-32
2023/05/12 05:40:45;;;;;;;53.22;32.03;;;12.80;99.90;;;;;;4961882;28;90796;-34
2023/05/12 05:43:10;;;;;;;57.92;30.50;;;12.80;99.90;;;;;;4960624;28;89877;-33
2023/05/12 05:45:36;;;;;;;47.90;27.38;;;12.80;99.90;;;;;;4962005;28;90232;-32
2023/05/12 05:48:02;;;;;;;43.70;25.15;;;12.80;99.90;;;;;;4984008;28;89268;-35
2023/05/12 05:50:27;;;;;;;50.78;27.70;;;12.90;99.90;;;;;;4996268;28;88479;-32
2023/05/12 05:52:54;;;;;;;50.22;30.23;;;13.00;99.90;;;;;;4990857;28;90302;-30
2023/05/12 05:55:20;;;;;;;46.75;29.33;;;12.90;99.90;;;;;;4981689;28;89841;-30
2023/05/12 05:57:46;;;;;;;44.55;29.88;;;12.90;99.90;;;;;;4980708;28;90239;-33
2023/05/12 06:00:13;;;;;;;51.80;29.13;;;12.90;99.90;;;;;;4979769;28;89587;-34
2023/05/12 06:02:40;;;;;;;45.05;29.15;;;12.90;99.90;;;;;;4990792;28;90084;-33
2023/05/12 06:05:06;;;;;;;48.20;29.33;;;12.90;99.90;;;;;;4976118;28;91599;-34
2023/05/12 06:07:32;;;;;;;38.33;28.08;;;12.90;99.90;;;;;;4971442;28;90712;-33
2023/05/12 06:09:57;;;;;;;47.33;29.23;;;12.80;99.90;;;;;;4963470;28;89045;-32
2023/05/12 06:12:23;;;;;;;47.97;29.95;;;12.70;99.90;;;;;;4961310;28;90374;-31
2023/05/12 06:14:48;;;;;;;41.50;25.65;;;12.80;99.90;;;;;;4966692;28;88589;-30
2023/05/12 06:17:14;;;;;;;47.20;28.70;;;12.90;99.90;;;;;;4969411;28;89732;-34
2023/05/12 06:19:39;;;;;;;50.88;29.45;;;13.00;99.90;;;;;;4972711;28;89041;-34
2023/05/12 06:22:05;;;;;;;53.58;29.15;;;12.90;99.90;;;;;;4959715;28;90304;-35
2023/05/12 06:24:31;;;;;;;54.70;30.52;;;13.00;99.90;;;;;;4989991;28;89247;-33
2023/05/12 06:26:56;;;;;;;53.15;30.08;;;12.90;99.90;;;;;;4988525;28;90320;-33
2023/05/12 06:29:22;;;;;;;54.30;31.60;;;12.90;99.90;;;;;;4973600;28;90102;-32
2023/05/12 06:31:47;;;;;;;50.35;27.80;;;12.80;99.90;;;;;;4972480;28;90793;-32
2023/05/12 06:34:13;;;;;;;52.63;34.08;;;12.90;99.90;;;;;;4973726;28;89047;-34
2023/05/12 06:36:39;;;;;;;53.40;34.25;;;12.90;99.90;;;;;;4972078;28;89678;-31
2023/05/12 06:39:04;;;;;;;56.35;29.08;;;12.80;99.90;;;;;;4979288;28;90251;-35
2023/05/12 06:41:31;;;;;;;48.33;29.48;;;12.80;99.90;;;;;;4985461;28;90667;-35
2023/05/12 06:43:56;;;;;;;55.85;33.15;;;13.00;99.90;;;;;;4968530;28;89604;-33
2023/05/12 06:46:22;;;;;;;49.15;29.30;;;13.00;99.90;;;;;;4980172;28;89368;-34
2023/05/12 06:48:47;;;;;;;50.60;30.70;;;13.00;99.90;;;;;;4993373;28;88858;-34
2023/05/12 06:51:13;;;;;;;47.22;30.38;;;13.00;99.90;;;;;;4982384;28;90886;-30
2023/05/12 06:53:42;;;;;;;47.08;29.95;;;12.90;99.90;;;;;;4974218;28;90020;-31
2023/05/12 06:56:08;;;;;;;50.65;30.23;;;13.00;99.90;;;;;;4976404;28;90796;-32
2023/05/12 06:58:33;;;;;;;39.25;27.17;;;13.10;99.90;;;;;;4981356;28;89337;-34
2023/05/12 07:00:59;;;;;;;57.00;31.15;;;13.00;99.90;;;;;;4975826;28;90966;-31
2023/05/12 07:03:25;;;;;;;46.17;28.63;;;13.10;99.90;;;;;;4976066;28;90216;-31
2023/05/12 07:05:50;;;;;;;45.97;28.27;;;13.20;99.90;;;;;;4972143;28;89233;-34
2023/05/12 07:08:16;;;;;;;39.70;29.05;;;13.20;99.90;;;;;;4963650;28;88905;-34
2023/05/12 07:10:42;;;;;;;48.60;31.88;;;13.10;99.90;;;;;;4981141;28;90114;-34
2023/05/12 07:13:07;;;;;;;53.33;35.50;;;13.10;99.90;;;;;;4976733;28;89351;-32
2023/05/12 07:15:33;;;;;;;46.92;32.75;;;13.10;99.90;;;;;;4981359;28;89017;-31
2023/05/12 07:17:59;;;;;;;45.35;30.85;;;13.20;99.90;;;;;;4968038;28;89043;-34
2023/05/12 07:20:24;;;;;;;45.45;26.70;;;13.30;99.90;;;;;;4965111;28;90186;-30
2023/05/12 07:22:51;;;;;;;48.55;32.08;;;13.30;99.90;;;;;;4968740;28;89493;-31
2023/05/12 07:25:17;;;;;;;45.08;27.70;;;13.30;99.90;;;;;;4977760;28;90801;-33
2023/05/12 07:27:43;;;;;;;49.35;31.88;;;13.20;99.90;;;;;;4974634;28;89764;-35
2023/05/12 07:30:10;;;;;;;45.88;28.52;;;13.20;99.90;;;;;;4973016;28;90463;-32
2023/05/12 07:32:35;;;;;;;43.85;30.58;;;13.30;99.90;;;;;;4968400;28;89484;-32
2023/05/12 07:35:02;;;;;;;49.03;31.65;;;13.40;99.90;;;;;;4967105;28;90164;-35
2023/05/12 07:37:28;;;;;;;43.83;29.15;;;13.30;99.90;;;;;;4962234;28;89986;-30
2023/05/12 07:39:54;;;;;;;43.65;28.52;;;13.30;99.90;;;;;;4969974;28;90526;-35
2023/05/12 07:42:21;;;;;;;42.80;28.60;;;13.30;99.90;;;;;;4974312;28;89506;-34
2023/05/12 07:44:47;;;;;;;40.45;26.33;;;13.40;99.90;;;;;;4959243;28;90278;-33
2023/05/12 07:47:13;;;;;;;41.55;29.92;;;13.30;99.90;;;;;;4967783;28;88930;-32
2023/05/12 07:49:38;;;;;;;39.78;29.10;;;13.40;99.90;;;;;;4986812;28;90568;-33
2023/05/12 07:52:04;;;;;;;44.47;27.65;;;13.40;99.90;;;;;;4959856;28;89801;-32
2023/05/12 07:54:30;;;;;;;38.15;23.98;;;13.40;99.90;;;;;;4958805;28;89227;-32
2023/05/12 07:56:56;;;;;;;46.60;29.25;;;13.50;99.90;;;;;;4959579;28;88360;-32
2023/05/12 07:59:22;;;;;;;42.70;27.40;;;13.50;99.90;;;;;;4966546;28;90986;-34
2023/05/12 08:01:48;;;;;;;36.38;26.10;;;13.50;99.90;;;;;;4962285;28;89594;-32
2023/05/12 08:04:14;;;;;;;38.65;26.10;;;13.60;99.90;;;;;;4957644;28;88923;-32
2023/05/12 08:06:40;;;;;;;40.03;28.75;;;13.70;99.90;;;;;;4959662;28;88998;-31
2023/05/12 08:09:06;;;;;;;37.63;24.25;;;13.80;99.90;;;;;;4979158;28;90232;-32
2023/05/12 08:11:31;;;;;;;44.15;27.67;;;13.80;99.90;;;;;;4985328;28;89350;-31
2023/05/12 08:13:57;;;;;;;41.97;26.70;;;13.80;99.90;;;;;;4975544;28;89732;-34
2023/05/12 08:16:22;;;;;;;35.83;23.00;;;13.80;99.90;;;;;;4975215;28;87534;-35
2023/05/12 08:18:48;;;;;;;33.10;24.08;;;13.90;99.90;;;;;;4974345;28;90829;-30
2023/05/12 08:21:14;;;;;;;40.55;25.60;;;13.90;99.90;;;;;;4988161;28;89498;-32
2023/05/12 08:23:39;;;;;;;38.40;26.67;;;13.90;99.90;;;;;;4978609;28;89847;-31
2023/05/12 08:26:05;;;;;;;42.45;27.48;;;13.80;99.90;;;;;;4987210;28;88670;-32
2023/05/12 08:28:31;;;;;;;38.15;27.38;;;13.80;99.90;;;;;;4981971;28;89974;-33
2023/05/12 08:30:57;;;;;;;39.28;25.73;;;13.80;99.90;;;;;;4973742;28;90333;-32
2023/05/12 08:33:23;;;;;;;39.17;24.08;;;13.80;99.90;;;;;;4973154;28;90511;-35
2023/05/12 08:35:49;;;;;;;35.78;21.58;;;14.00;99.90;;;;;;4974554;28;87803;-34
2023/05/12 08:38:15;;;;;;;30.80;21.05;;;14.10;99.90;;;;;;4976538;28;90555;-32
2023/05/12 08:40:55;;;;;;;33.70;23.55;;;14.30;99.90;;;;;;4983980;28;90326;-32
2023/05/12 08:43:29;;;;;;;30.58;22.50;;;14.30;99.90;;;;;;4973413;28;89916;-34
2023/05/12 08:45:58;;;;;;;37.53;26.60;;;14.40;99.90;;;;;;4976400;28;89223;-34
2023/05/12 08:48:26;;;;;;;33.20;24.80;;;14.50;99.90;;;;;;4990091;28;90313;-35
2023/05/12 08:50:53;;;;;;;28.98;21.45;;;14.60;99.90;;;;;;4972574;28;89820;-30
2023/05/12 08:53:23;;;;;;;36.13;27.13;;;14.70;99.90;;;;;;4969330;28;89745;-32
2023/05/12 08:55:50;;;;;;;38.78;27.42;;;;;;;;;;4977616;28;90337;-31
2023/05/12 08:58:16;;;;;;;31.33;22.88;;;;;;;;;;4962973;28;89917;-35
2023/05/12 09:00:43;;;;;;;30.80;22.00;;;;;;;;;;4966606;28;89342;-34
2023/05/12 09:03:12;;;;;;;33.25;25.20;;;;;;;;;;4964049;28;90295;-33
2023/05/12 09:05:38;;;;;;;;;;;;;;;;;;4959489;28;88401;-34
2023/05/12 09:08:04;;;;;;;26.75;22.52;;;;;;;;;;4960383;28;90125;-35
2023/05/12 09:10:30;;;;;;;30.02;23.33;;;;;;;;;;4958223;28;90136;-31
2023/05/12 09:13:02;;;;;;;30.20;22.95;;;;;;;;;;4958075;28;89513;-32
2023/05/12 09:15:33;;;;;;;33.08;25.67;;;;;;;;;;4958543;28;89958;-32
2023/05/12 09:17:59;;;;;;;30.40;22.50;;;;;;;;;;4971294;28;90235;-32
2023/05/12 09:20:26;;;;;;;29.20;21.02;;;;;;;;;;4957409;28;90854;-30
2023/05/12 09:22:52;;;;;;;32.92;25.90;;;;;;;;;;4959881;28;90426;-31
2023/05/12 09:25:18;;;;;;;30.67;24.65;;;;;;;;;;4958491;28;88513;-34
2023/05/12 09:27:48;;;;;;;33.33;23.50;;;;;;;;;;4975778;28;90699;-32
2023/05/12 09:30:14;;;;;;;34.13;25.17;;;;;;;;;;4965601;28;89059;-33
2023/05/12 09:32:41;;;;;;;33.15;25.33;;;;;;;;;;4960388;28;89373;-31
2023/05/12 09:35:10;;;;;;;31.63;25.55;;;;;;;;;;4959111;28;89304;-35
2023/05/12 09:37:36;;;;;;;22.30;19.50;;;;;;;;;;4959251;28;91193;-34
2023/05/12 09:40:07;;;;;;;25.40;20.42;;;;;;;;;;4960948;28;89702;-34
2023/05/12 09:42:33;;;;;;;24.95;21.25;;;;;;;;;;4961801;28;89088;-31
2023/05/12 09:45:08;;;;;;;22.35;19.70;;;;;;;;;;4962777;28;89501;-33
2023/05/12 09:47:38;;;;;;;26.05;20.83;;;;;;;;;;4975232;28;90399;-36
2023/05/12 09:50:05;;;;;;;22.83;19.65;;;;;;;;;;4986228;28;90115;-32
2023/05/12 09:52:35;;;;;;;28.60;22.88;;;;;;;;;;4960596;28;89097;-32
2023/05/12 09:55:11;;;;;;;24.25;19.30;;;;;;;;;;4961187;28;89744;-33
2023/05/12 09:57:44;;;;;;;29.98;21.52;;;;;;;;;;4961138;28;90282;-35
2023/05/12 10:00:12;;;;;;;28.83;21.10;;;;;;;;;;4964276;28;89695;-34
2023/05/12 10:02:43;;;;;;;26.00;22.42;;;;;;;;;;4969785;28;90152;-32
2023/05/12 10:05:15;;;;;;;24.13;21.60;;;;;;;;;;4960549;28;89893;-33
2023/05/12 10:07:42;;;;;;;18.38;16.25;;;;;;;;;;4974411;28;89838;-32
2023/05/12 10:10:08;;;;;;;13.57;12.23;;;;;;;;;;4978210;28;90759;-33
2023/05/12 10:12:34;;;;;;;19.33;17.23;;;;;;;;;;4978977;28;88634;-32
2023/05/12 10:15:01;;;;;;;17.05;15.30;;;;;;;;;;4992544;28;88950;-33
2023/05/12 10:17:27;;;;;;;18.63;16.30;;;;;;;;;;4978064;28;89918;-33
2023/05/12 10:19:54;;;;;;;22.42;20.23;;;;;;;;;;4967765;28;89937;-33
2023/05/12 10:22:21;;;;;;;20.23;18.08;;;;;;;;;;4982062;28;90178;-34
2023/05/12 10:24:48;;;;;;;23.30;19.05;;;;;;;;;;4985669;28;90360;-31
2023/05/12 10:27:16;;;;;;;19.90;17.80;;;;;;;;;;4986187;28;90444;-36
2023/05/12 10:29:42;;;;;;;26.03;22.57;;;;;;;;;;4989078;28;89612;-33
2023/05/12 10:32:09;;;;;;;28.20;23.10;;;;;;;;;;4973076;28;88535;-34
2023/05/12 10:34:36;;;;;;;25.07;22.40;;;;;;;;;;4982774;28;89216;-32
2023/05/12 10:37:09;;;;;;;29.60;25.63;;;;;;;;;;4976644;28;90317;-32
2023/05/12 10:39:36;;;;;;;26.67;23.77;;;;;;;;;;4975860;28;88301;-30
2023/05/12 10:42:08;;;;;;;31.08;27.90;;;;;;;;;;4972551;28;89712;-33
2023/05/12 10:44:35;;;;;;;30.38;27.30;;;;;;;;;;4984063;28;88993;-33
2023/05/12 10:47:01;;;;;;;27.40;24.05;;;;;;;;;;4978293;28;91303;-31
2023/05/12 10:49:38;;;;;;;27.10;24.30;;;;;;;;;;4997448;28;89727;-32
2023/05/12 10:52:06;;;;;;;24.73;22.25;;;;;;;;;;4979697;28;90035;-31
2023/05/12 10:54:37;;;;;;;27.93;24.27;;;;;;;;;;4966901;28;88338;-36
2023/05/12 10:57:11;;;;;;;28.42;25.10;;;;;;;;;;4958234;28;90115;-32
2023/05/12 10:59:46;;;;;;;28.73;25.80;;;;;;;;;;4958360;28;90831;-33
2023/05/12 11:02:15;;;;;;;24.70;21.98;;;;;;;;;;4958239;28;90050;-31
2023/05/12 11:04:42;;;;;;;23.08;20.65;;;;;;;;;;4959305;28;89076;-31
2023/05/12 11:07:09;;;;;;;25.83;23.05;;;;;;;;;;4958003;28;91537;-34
2023/05/12 11:09:38;;;;;;;27.20;24.40;;;;;;;;;;4960781;28;90531;-35
2023/05/12 11:12:08;;;;;;;25.67;23.02;;;;;;;;;;4977621;28;90361;-31
2023/05/12 11:14:35;;;;;;;25.10;22.48;;;;;;;;;;4969474;28;89255;-35
2023/05/12 11:17:01;;;;;;;28.30;25.52;;;;;;;;;;4970276;28;90093;-35
2023/05/12 11:19:27;;;;;;;24.65;22.17;;;;;;;;;;4965234;28;90666;-35
2023/05/12 11:21:56;;;;;;;23.85;21.38;;;;;;;;;;4973595;28;89804;-33
2023/05/12 11:24:22;;;;;;;24.35;21.75;;;;;;;;;;4973945;28;89106;-33
2023/05/12 11:26:51;;;;;;;27.98;25.08;;;;;;;;;;4980391;28;91883;-32
2023/05/12 11:29:20;;;;;;;23.42;19.42;;;;;;;;;;4983236;28;89807;-33
2023/05/12 11:31:50;;;;;;;20.25;18.40;;;;;;;;;;4982242;28;90139;-33
2023/05/12 11:34:20;;;;;;;20.48;18.50;;;;;;;;;;4985914;28;89026;-32
2023/05/12 11:36:47;;;;;;;21.52;19.45;;;;;;;;;;4976065;28;90982;-31
2023/05/12 11:39:16;;;;;;;24.08;21.45;;;;;;;;;;4979654;28;90305;-34
2023/05/12 11:41:43;;;;;;;22.02;19.83;;;;;;;;;;4977435;28;89857;-33
2023/05/12 11:44:22;;;;;;;18.30;16.60;;;;;;;;;;4991594;28;90070;-33
2023/05/12 11:46:58;;;;;;;12.68;11.30;;;;;;;;;;4977691;28;90073;-33
2023/05/12 11:49:25;;;;;;;15.68;14.13;;;;;;;;;;4979788;28;90846;-32
2023/05/12 11:51:55;;;;;;;17.17;15.20;;;;;;;;;;4961036;28;89462;-32
2023/05/12 11:54:22;;;;;;;16.05;14.65;;;;;;;;;;4969376;28;89666;-35
2023/05/12 11:56:51;;;;;;;14.38;12.88;;;;;;;;;;4961803;28;89812;-31
2023/05/12 11:59:31;;;;;;;11.75;10.75;;;;;;;;;;4968128;28;89097;-31
2023/05/12 12:01:58;;;;;;;10.10;9.25;;;;;;;;;;4960731;28;89948;-32
2023/05/12 12:04:34;;;;;;;12.80;11.55;;;;;;;;;;4960602;28;89245;-32
2023/05/12 12:07:00;;;;;;;13.35;12.15;;;;;;;;;;4958012;28;89812;-33
2023/05/12 12:09:34;;;;;;;12.85;11.48;;;;;;;;;;4958827;28;89825;-32
2023/05/12 12:12:00;;;;;;;13.07;11.25;;;;;;;;;;4958645;28;89385;-33
2023/05/12 12:14:27;;;;;;;11.88;10.93;;;;;;;;;;4959329;28;89033;-35
2023/05/12 12:16:53;;;;;;;11.55;10.40;;;;;;;;;;4957952;28;88485;-34
2023/05/12 12:19:19;;;;;;;11.98;10.82;;;;;;;;;;4961947;28;89293;-33
2023/05/12 12:21:45;;;;;;;13.63;11.77;;;;;;;;;;4960055;28;89510;-33
2023/05/12 12:24:11;;;;;;;13.07;11.75;;;;;;;;;;4962294;28;88754;-33
2023/05/12 12:26:37;;;;;;;10.45;9.55;;;;;;;;;;4957062;28;90332;-35
2023/05/12 12:29:04;;;;;;;12.30;11.00;;;;;;;;;;4961065;28;90136;-33
2023/05/12 12:31:30;;;;;;;10.18;9.18;;;;;;;;;;4958672;28;89596;-33
2023/05/12 12:33:56;;;;;;;8.65;7.85;;;;;;;;;;4961292;28;89197;-33
2023/05/12 12:36:22;;;;;;;8.55;7.75;;;;;;;;;;4959438;28;89753;-34
2023/05/12 12:38:48;;;;;;;8.05;7.38;;;;;;;;;;4959463;28;89648;-32
2023/05/12 12:41:15;;;;;;;9.77;8.80;;;;;;;;;;4959550;28;90838;-35
2023/05/12 12:43:41;;;;;;;9.20;8.30;;;;;;;;;;4959459;28;89765;-32
2023/05/12 12:46:07;;;;;;;10.88;7.63;;;;;;;;;;4958035;28;89600;-33
2023/05/12 12:48:33;;;;;;;8.20;7.50;;;;;;;;;;4983674;28;89931;-34
2023/05/12 12:51:00;;;;;;;8.40;7.60;;;;;;;;;;4956558;28;89293;-34
2023/05/12 12:53:26;;;;;;;8.55;7.75;;;;;;;;;;4957192;28;89234;-35
2023/05/12 12:55:52;;;;;;;9.27;8.55;;;;;;;;;;4957761;28;89771;-33
2023/05/12 12:58:18;;;;;;;8.32;7.63;;;;;;;;;;4958758;28;89517;-33